Time,TemperatureF,DewpointF,PressureIn,WindDirection,WindDirectionDegrees,WindSpeedMPH,WindSpeedGustMPH,Humidity,HourlyPrecipIn,Conditions,Clouds,dailyrainin,SolarRadiationWatts/m^2,SoftwareType,DateUTC
2013-03-24 00:00:00,46.5,40.0,29.86,ESE,115,1.0,20.0,78,0.00,,,0.00,0,HR-IXPWINDi_r2_v1.2.,2013-03-24 04:00:00,
2013-03-24 00:05:00,46.7,39.8,29.86,SE,131,2.0,20.0,77,0.00,,,0.00,0,HR-IXPWINDi_r2_v1.2.,2013-03-24 04:05:00,
2013-03-24 00:10:00,46.8,39.6,29.85,South,182,6.0,17.0,76,0.00,,,0.00,0,HR-IXPWINDi_r2_v1.2.,2013-03-24 04:10:00,
2013-03-24 00:15:00,46.9,39.7,29.86,South,186,7.0,17.0,76,0.00,,,0.00,0,HR-IXPWINDi_r2_v1.2.,2013-03-24 04:15:00,
2013-03-24 00:21:00,46.9,39.7,29.86,SSE,148,6.0,13.0,76,0.00,,,0.00,0,HR-IXPWINDi_r2_v1.2.,2013-03-24 04:21:00,
2013-03-24 00:26:00,46.9,39.7,29.86,SSW,198,11.0,13.0,76,0.00,,,0.00,0,HR-IXPWINDi_r2_v1.2.,2013-03-24 04:26:00,
2013-03-24 00:31:00,46.9,39.3,29.85,SW,216,1.0,12.0,75,0.00,,,0.00,0,HR-IXPWINDi_r2_v1.2.,2013-03-24 04:31:00,
2013-03-24 00:36:00,47.0,39.1,29.85,South,174,1.0,12.0,74,0.00,,,0.00,0,HR-IXPWINDi_r2_v1.2.,2013-03-24 04:36:00,
2013-03-24 00:41:00,46.9,39.0,29.85,ESE,106,6.0,9.0,74,0.00,,,0.00,0,HR-IXPWINDi_r2_v1.2.,2013-03-24 04:41:00,
2013-03-24 00:47:00,47.2,38.9,29.85,South,180,5.0,15.0,73,0.00,,,0.00,0,HR-IXPWINDi_r2_v1.2.,2013-03-24 04:47:00,
2013-03-24 00:52:00,47.3,39.0,29.86,South,188,7.0,15.0,73,0.00,,,0.00,0,HR-IXPWINDi_r2_v1.2.,2013-03-24 04:52:00,
2013-03-24 00:57:00,47.4,39.1,29.86,South,169,5.0,14.0,73,0.00,,,0.00,0,HR-IXPWINDi_r2_v1.2.,2013-03-24 04:57:00,
2013-03-24 01:02:00,47.4,38.8,29.86,SSE,164,0.0,11.0,72,0.00,,,0.00,0,HR-IXPWINDi_r2_v1.2.,2013-03-24 05:02:00,
2013-03-24 01:07:00,47.2,38.9,29.86,SSE,165,4.0,8.0,73,0.00,,,0.00,0,HR-IXPWINDi_r2_v1.2.,2013-03-24 05:07:00,
2013-03-24 01:12:00,47.2,38.9,29.86,SSE,166,5.0,6.0,73,0.00,,,0.00,0,HR-IXPWINDi_r2_v1.2.,2013-03-24 05:12:00,
2013-03-24 01:18:00,47.2,38.6,29.87,SSE,168,9.0,13.0,72,0.00,,,0.00,0,HR-IXPWINDi_r2_v1.2.,2013-03-24 05:18:00,
2013-03-24 01:23:00,47.3,38.7,29.88,SE,146,2.0,13.0,72,0.00,,,0.00,0,HR-IXPWINDi_r2_v1.2.,2013-03-24 05:23:00,
2013-03-24 01:28:00,47.3,38.3,29.90,South,171,0.0,10.0,71,0.00,,,0.00,0,HR-IXPWINDi_r2_v1.2.,2013-03-24 05:28:00,
2013-03-24 01:33:00,47.4,38.1,29.91,SSE,153,5.0,10.0,70,0.00,,,0.00,0,HR-IXPWINDi_r2_v1.2.,2013-03-24 05:33:00,
2013-03-24 01:38:00,47.4,37.7,29.91,South,189,0.0,12.0,69,0.00,,,0.00,0,HR-IXPWINDi_r2_v1.2.,2013-03-24 05:38:00,
2013-03-24 01:43:00,47.4,37.7,29.91,ESE,115,1.0,12.0,69,0.00,,,0.00,0,HR-IXPWINDi_r2_v1.2.,2013-03-24 05:43:00,
2013-03-24 01:48:00,47.1,38.1,29.91,ESE,104,4.0,9.0,71,0.00,,,0.00,0,HR-IXPWINDi_r2_v1.2.,2013-03-24 05:48:00,
2013-03-24 01:54:00,46.7,38.1,29.91,South,178,1.0,9.0,72,0.00,,,0.01,0,HR-IXPWINDi_r2_v1.2.,2013-03-24 05:54:00,
2013-03-24 01:59:00,45.8,39.0,29.91,South,178,0.0,5.0,77,0.10,,,0.02,0,HR-IXPWINDi_r2_v1.2.,2013-03-24 05:59:00,
2013-03-24 02:04:00,45.2,39.4,29.91,South,178,0.0,4.0,80,0.07,,,0.02,0,HR-IXPWINDi_r2_v1.2.,2013-03-24 06:04:00,
2013-03-24 02:09:00,44.4,39.8,29.91,NW,325,0.0,4.0,84,0.06,,,0.03,0,HR-IXPWINDi_r2_v1.2.,2013-03-24 06:09:00,
2013-03-24 02:15:00,43.7,39.7,29.91,NW,325,0.0,4.0,86,0.08,,,0.04,0,HR-IXPWINDi_r2_v1.2.,2013-03-24 06:15:00,
2013-03-24 02:20:00,44.0,39.1,29.90,SSE,161,2.0,6.0,83,0.08,,,0.04,0,HR-IXPWINDi_r2_v1.2.,2013-03-24 06:20:00,
2013-03-24 02:25:00,43.8,39.8,29.89,SSE,161,2.0,6.0,86,0.07,,,0.05,0,HR-IXPWINDi_r2_v1.2.,2013-03-24 06:25:00,
2013-03-24 02:30:00,43.1,39.4,29.88,SSE,161,4.0,5.0,87,0.07,,,0.05,0,HR-IXPWINDi_r2_v1.2.,2013-03-24 06:30:00,
2013-03-24 02:35:00,42.9,39.5,29.87,East,88,2.0,6.0,88,0.07,,,0.06,0,HR-IXPWINDi_r2_v1.2.,2013-03-24 06:35:00,
2013-03-24 02:40:00,42.7,39.6,29.86,East,88,0.0,6.0,89,0.06,,,0.06,0,HR-IXPWINDi_r2_v1.2.,2013-03-24 06:40:00,
2013-03-24 02:45:00,42.5,39.7,29.86,NW,323,0.0,5.0,90,0.04,,,0.06,0,HR-IXPWINDi_r2_v1.2.,2013-03-24 06:45:00,
2013-03-24 02:50:00,42.4,39.6,29.85,North,355,0.0,5.0,90,0.00,,,0.07,0,HR-IXPWINDi_r2_v1.2.,2013-03-24 06:50:00,
2013-03-24 02:56:00,42.3,39.8,29.84,North,351,0.0,2.0,91,0.00,,,0.07,0,HR-IXPWINDi_r2_v1.2.,2013-03-24 06:56:00,
2013-03-24 03:01:00,42.2,39.7,29.83,North,350,3.0,5.0,91,0.00,,,0.07,0,HR-IXPWINDi_r2_v1.2.,2013-03-24 07:01:00,
2013-03-24 03:06:00,42.2,39.7,29.83,NNW,335,1.0,5.0,91,0.00,,,0.07,0,HR-IXPWINDi_r2_v1.2.,2013-03-24 07:06:00,
2013-03-24 03:11:00,42.1,39.6,29.83,SSW,192,0.0,5.0,91,0.00,,,0.07,0,HR-IXPWINDi_r2_v1.2.,2013-03-24 07:11:00,
2013-03-24 03:16:00,42.0,39.8,29.83,SSW,192,0.0,5.0,92,0.00,,,0.07,0,HR-IXPWINDi_r2_v1.2.,2013-03-24 07:16:00,
2013-03-24 03:22:00,42.0,39.8,29.83,SSW,192,0.0,3.0,92,0.00,,,0.07,0,HR-IXPWINDi_r2_v1.2.,2013-03-24 07:22:00,
2013-03-24 03:27:00,41.9,39.7,29.83,WSW,254,2.0,5.0,92,0.00,,,0.07,0,HR-IXPWINDi_r2_v1.2.,2013-03-24 07:27:00,
2013-03-24 03:32:00,41.9,39.7,29.83,NW,304,1.0,5.0,92,0.00,,,0.07,0,HR-IXPWINDi_r2_v1.2.,2013-03-24 07:32:00,
2013-03-24 03:37:00,41.9,39.7,29.82,NW,304,1.0,4.0,92,0.00,,,0.08,0,HR-IXPWINDi_r2_v1.2.,2013-03-24 07:37:00,
2013-03-24 03:42:00,41.9,40.0,29.83,SW,223,1.0,5.0,93,0.00,,,0.08,0,HR-IXPWINDi_r2_v1.2.,2013-03-24 07:42:00,
2013-03-24 03:48:00,41.8,39.9,29.82,SW,223,1.0,5.0,93,0.00,,,0.08,0,HR-IXPWINDi_r2_v1.2.,2013-03-24 07:48:00,
2013-03-24 03:53:00,41.8,39.9,29.82,SW,223,0.0,3.0,93,0.00,,,0.08,0,HR-IXPWINDi_r2_v1.2.,2013-03-24 07:53:00,
2013-03-24 03:58:00,41.9,40.0,29.82,SW,223,2.0,3.0,93,0.00,,,0.08,0,HR-IXPWINDi_r2_v1.2.,2013-03-24 07:58:00,
2013-03-24 04:03:00,41.8,39.9,29.82,WNW,303,2.0,3.0,93,0.00,,,0.08,0,HR-IXPWINDi_r2_v1.2.,2013-03-24 08:03:00,
2013-03-24 04:08:00,41.7,39.8,29.81,NW,325,0.0,3.0,93,0.00,,,0.08,0,HR-IXPWINDi_r2_v1.2.,2013-03-24 08:08:00,
2013-03-24 04:14:00,41.8,40.1,29.80,WSW,244,0.0,3.0,94,0.00,,,0.08,0,HR-IXPWINDi_r2_v1.2.,2013-03-24 08:14:00,
2013-03-24 04:19:00,41.8,40.1,29.80,WSW,242,2.0,3.0,94,0.00,,,0.09,0,HR-IXPWINDi_r2_v1.2.,2013-03-24 08:19:00,
2013-03-24 04:24:00,41.8,40.1,29.80,WSW,240,2.0,3.0,94,0.00,,,0.09,0,HR-IXPWINDi_r2_v1.2.,2013-03-24 08:24:00,
2013-03-24 04:29:00,41.7,40.0,29.79,West,267,2.0,3.0,94,0.00,,,0.09,0,HR-IXPWINDi_r2_v1.2.,2013-03-24 08:29:00,
2013-03-24 04:34:00,41.7,40.0,29.79,West,277,0.0,3.0,94,0.00,,,0.09,0,HR-IXPWINDi_r2_v1.2.,2013-03-24 08:34:00,
2013-03-24 04:39:00,41.7,40.0,29.79,West,277,0.0,3.0,94,0.00,,,0.09,0,HR-IXPWINDi_r2_v1.2.,2013-03-24 08:39:00,
2013-03-24 04:44:00,41.9,40.2,29.78,West,277,0.0,3.0,94,0.00,,,0.09,0,HR-IXPWINDi_r2_v1.2.,2013-03-24 08:44:00,
2013-03-24 04:49:00,41.9,40.2,29.78,West,277,0.0,1.0,94,0.00,,,0.09,0,HR-IXPWINDi_r2_v1.2.,2013-03-24 08:49:00,
2013-03-24 04:55:00,41.9,40.2,29.78,West,277,0.0,2.0,94,0.00,,,0.09,0,HR-IXPWINDi_r2_v1.2.,2013-03-24 08:55:00,
2013-03-24 05:00:00,41.9,40.2,29.77,West,277,0.0,2.0,94,0.00,,,0.09,0,HR-IXPWINDi_r2_v1.2.,2013-03-24 09:00:00,
2013-03-24 05:05:00,41.9,40.5,29.77,West,277,0.0,0.0,95,0.00,,,0.10,0,HR-IXPWINDi_r2_v1.2.,2013-03-24 09:05:00,
2013-03-24 05:10:00,41.9,40.5,29.76,West,277,0.0,2.0,95,0.00,,,0.10,0,HR-IXPWINDi_r2_v1.2.,2013-03-24 09:10:00,
2013-03-24 05:15:00,42.0,40.6,29.76,West,277,0.0,2.0,95,0.00,,,0.10,0,HR-IXPWINDi_r2_v1.2.,2013-03-24 09:15:00,
2013-03-24 05:20:00,41.9,40.5,29.75,West,277,0.0,2.0,95,0.00,,,0.10,0,HR-IXPWINDi_r2_v1.2.,2013-03-24 09:20:00,
2013-03-24 05:25:00,41.8,40.4,29.74,West,259,0.0,3.0,95,0.00,,,0.10,0,HR-IXPWINDi_r2_v1.2.,2013-03-24 09:25:00,
2013-03-24 05:30:00,41.7,40.3,29.73,West,259,0.0,3.0,95,0.00,,,0.10,0,HR-IXPWINDi_r2_v1.2.,2013-03-24 09:30:00,
2013-03-24 05:35:00,41.7,40.3,29.72,West,270,0.0,4.0,95,0.00,,,0.10,0,HR-IXPWINDi_r2_v1.2.,2013-03-24 09:35:00,
2013-03-24 05:41:00,41.8,40.4,29.72,South,173,4.0,5.0,95,0.00,,,0.10,0,HR-IXPWINDi_r2_v1.2.,2013-03-24 09:41:00,
2013-03-24 05:46:00,41.7,40.3,29.72,SSE,167,4.0,6.0,95,0.00,,,0.11,0,HR-IXPWINDi_r2_v1.2.,2013-03-24 09:46:00,
2013-03-24 05:52:00,41.7,40.3,29.71,SSE,167,2.0,6.0,95,0.00,,,0.11,0,HR-IXPWINDi_r2_v1.2.,2013-03-24 09:52:00,
2013-03-24 05:57:00,41.7,40.3,29.71,South,174,0.0,4.0,95,0.04,,,0.12,0,HR-IXPWINDi_r2_v1.2.,2013-03-24 09:57:00,
2013-03-24 06:02:00,41.8,40.4,29.71,South,183,3.0,5.0,95,0.04,,,0.12,0,HR-IXPWINDi_r2_v1.2.,2013-03-24 10:02:00,
2013-03-24 06:07:00,41.8,40.4,29.71,SSW,196,6.0,6.0,95,0.05,,,0.13,0,HR-IXPWINDi_r2_v1.2.,2013-03-24 10:07:00,
2013-03-24 06:12:00,42.0,40.9,29.71,SSW,193,4.0,6.0,96,0.16,,,0.14,0,HR-IXPWINDi_r2_v1.2.,2013-03-24 10:12:00,
2013-03-24 06:17:00,42.0,40.6,29.71,SSW,194,0.0,6.0,95,0.10,,,0.15,0,HR-IXPWINDi_r2_v1.2.,2013-03-24 10:17:00,
2013-03-24 06:22:00,42.0,40.6,29.70,SSW,198,0.0,7.0,95,0.10,,,0.15,0,HR-IXPWINDi_r2_v1.2.,2013-03-24 10:22:00,
2013-03-24 06:27:00,42.1,40.7,29.69,SSW,198,0.0,7.0,95,0.08,,,0.16,0,HR-IXPWINDi_r2_v1.2.,2013-03-24 10:27:00,
2013-03-24 06:33:00,41.9,40.8,29.69,WSW,237,1.0,4.0,96,0.13,,,0.17,0,HR-IXPWINDi_r2_v1.2.,2013-03-24 10:33:00,
2013-03-24 06:38:00,41.8,40.7,29.68,SW,220,1.0,4.0,96,0.12,,,0.18,0,HR-IXPWINDi_r2_v1.2.,2013-03-24 10:38:00,
2013-03-24 06:43:00,41.7,40.3,29.69,SSW,202,2.0,7.0,95,0.06,,,0.18,0,HR-IXPWINDi_r2_v1.2.,2013-03-24 10:43:00,
2013-03-24 06:48:00,41.7,40.3,29.69,SSW,202,8.0,8.0,95,0.04,,,0.19,0,HR-IXPWINDi_r2_v1.2.,2013-03-24 10:48:00,
2013-03-24 06:54:00,41.6,40.5,29.69,SSW,209,2.0,9.0,96,0.04,,,0.19,0,HR-IXPWINDi_r2_v1.2.,2013-03-24 10:54:00,
2013-03-24 06:59:00,41.5,40.4,29.69,SSW,192,3.0,9.0,96,0.08,,,0.20,0,HR-IXPWINDi_r2_v1.2.,2013-03-24 10:59:00,
2013-03-24 07:04:00,41.5,40.4,29.69,SSW,193,2.0,7.0,96,0.08,,,0.21,0,HR-IXPWINDi_r2_v1.2.,2013-03-24 11:04:00,
2013-03-24 07:09:00,41.5,40.4,29.69,SSW,200,4.0,7.0,96,0.16,,,0.22,0,HR-IXPWINDi_r2_v1.2.,2013-03-24 11:09:00,
2013-03-24 07:14:00,41.4,40.3,29.70,SSW,201,2.0,7.0,96,0.20,,,0.24,0,HR-IXPWINDi_r2_v1.2.,2013-03-24 11:14:00,
2013-03-24 07:20:00,41.5,40.4,29.70,SW,214,2.0,7.0,96,0.29,,,0.26,0,HR-IXPWINDi_r2_v1.2.,2013-03-24 11:20:00,
2013-03-24 07:25:00,41.4,40.3,29.71,SSW,201,5.0,7.0,96,0.30,,,0.28,0,HR-IXPWINDi_r2_v1.2.,2013-03-24 11:25:00,
2013-03-24 07:30:00,41.3,40.2,29.71,SSW,201,4.0,7.0,96,0.21,,,0.30,0,HR-IXPWINDi_r2_v1.2.,2013-03-24 11:30:00,
2013-03-24 07:35:00,41.4,40.3,29.72,SSW,201,2.0,7.0,96,0.32,,,0.32,0,HR-IXPWINDi_r2_v1.2.,2013-03-24 11:35:00,
2013-03-24 07:40:00,41.4,40.3,29.73,South,191,5.0,7.0,96,0.29,,,0.34,0,HR-IXPWINDi_r2_v1.2.,2013-03-24 11:40:00,
2013-03-24 07:45:00,41.5,40.4,29.75,South,190,6.0,8.0,96,0.28,,,0.36,0,HR-IXPWINDi_r2_v1.2.,2013-03-24 11:45:00,
2013-03-24 07:51:00,41.5,40.4,29.76,SSW,202,0.0,8.0,96,0.34,,,0.38,0,HR-IXPWINDi_r2_v1.2.,2013-03-24 11:51:00,
2013-03-24 07:56:00,41.6,40.5,29.77,SSW,202,1.0,7.0,96,0.24,,,0.41,0,HR-IXPWINDi_r2_v1.2.,2013-03-24 11:56:00,
2013-03-24 08:01:00,41.6,40.5,29.77,SE,130,5.0,5.0,96,0.32,,,0.44,0,HR-IXPWINDi_r2_v1.2.,2013-03-24 12:01:00,
2013-03-24 08:06:00,41.6,40.5,29.77,SE,129,4.0,5.0,96,0.37,,,0.46,0,HR-IXPWINDi_r2_v1.2.,2013-03-24 12:06:00,
2013-03-24 08:12:00,41.6,40.5,29.74,ENE,77,3.0,5.0,96,0.49,,,0.50,9,HR-IXPWINDi_r2_v1.2.,2013-03-24 12:12:00,
2013-03-24 08:17:00,41.6,40.5,29.71,NE,43,2.0,7.0,96,0.43,,,0.54,25,HR-IXPWINDi_r2_v1.2.,2013-03-24 12:17:00,
2013-03-24 08:22:00,41.5,40.4,29.69,NNE,17,7.0,12.0,96,0.19,,,0.56,32,HR-IXPWINDi_r2_v1.2.,2013-03-24 12:22:00,
2013-03-24 08:27:00,41.5,40.4,29.70,NNW,333,3.0,16.0,96,0.15,,,0.57,25,HR-IXPWINDi_r2_v1.2.,2013-03-24 12:27:00,
2013-03-24 08:32:00,41.7,40.6,29.69,NW,321,1.0,16.0,96,0.09,,,0.57,25,HR-IXPWINDi_r2_v1.2.,2013-03-24 12:32:00,
2013-03-24 08:38:00,42.0,40.6,29.70,NNW,347,5.0,10.0,95,0.05,,,0.57,23,HR-IXPWINDi_r2_v1.2.,2013-03-24 12:38:00,
2013-03-24 08:43:00,42.2,40.8,29.70,NNW,346,2.0,7.0,95,0.00,,,0.57,19,HR-IXPWINDi_r2_v1.2.,2013-03-24 12:43:00,
2013-03-24 08:48:00,42.4,41.0,29.69,NNW,331,4.0,7.0,95,0.00,,,0.57,25,HR-IXPWINDi_r2_v1.2.,2013-03-24 12:48:00,
2013-03-24 08:53:00,42.6,41.2,29.70,NNW,328,0.0,7.0,95,0.00,,,0.57,18,HR-IXPWINDi_r2_v1.2.,2013-03-24 12:53:00,
2013-03-24 08:59:00,42.8,41.1,29.69,NNW,328,0.0,5.0,94,0.00,,,0.57,19,HR-IXPWINDi_r2_v1.2.,2013-03-24 12:59:00,
2013-03-24 09:04:00,42.7,41.0,29.69,NNW,328,2.0,3.0,94,0.00,,,0.57,23,HR-IXPWINDi_r2_v1.2.,2013-03-24 13:04:00,
2013-03-24 09:09:00,42.7,41.0,29.69,NNW,328,1.0,3.0,94,0.00,,,0.57,19,HR-IXPWINDi_r2_v1.2.,2013-03-24 13:09:00,
2013-03-24 09:14:00,42.7,41.0,29.69,NW,315,0.0,3.0,94,0.00,,,0.57,28,HR-IXPWINDi_r2_v1.2.,2013-03-24 13:14:00,
2013-03-24 09:19:00,42.5,40.8,29.69,WNW,300,0.0,4.0,94,0.00,,,0.57,33,HR-IXPWINDi_r2_v1.2.,2013-03-24 13:19:00,
2013-03-24 09:24:00,42.5,41.1,29.69,WNW,300,2.0,4.0,95,0.00,,,0.57,44,HR-IXPWINDi_r2_v1.2.,2013-03-24 13:24:00,
2013-03-24 09:29:00,42.6,41.2,29.70,WNW,294,2.0,3.0,95,0.00,,,0.57,54,HR-IXPWINDi_r2_v1.2.,2013-03-24 13:29:00,
2013-03-24 09:34:00,42.6,41.2,29.69,South,186,3.0,4.0,95,0.00,,,0.57,69,HR-IXPWINDi_r2_v1.2.,2013-03-24 13:34:00,
2013-03-24 09:39:00,42.7,41.3,29.69,SSE,157,0.0,5.0,95,0.00,,,0.57,72,HR-IXPWINDi_r2_v1.2.,2013-03-24 13:39:00,
2013-03-24 09:44:00,42.8,41.4,29.69,SSE,157,0.0,5.0,95,0.00,,,0.57,72,HR-IXPWINDi_r2_v1.2.,2013-03-24 13:44:00,
2013-03-24 09:50:00,42.8,41.4,29.69,SSE,165,1.0,4.0,95,0.00,,,0.57,90,HR-IXPWINDi_r2_v1.2.,2013-03-24 13:50:00,
2013-03-24 09:55:00,42.9,41.5,29.70,South,181,3.0,5.0,95,0.00,,,0.57,63,HR-IXPWINDi_r2_v1.2.,2013-03-24 13:55:00,
2013-03-24 10:00:00,42.9,41.5,29.69,South,187,2.0,5.0,95,0.00,,,0.57,67,HR-IXPWINDi_r2_v1.2.,2013-03-24 14:00:00,
2013-03-24 10:05:00,42.9,41.5,29.69,South,191,3.0,5.0,95,0.00,,,0.57,60,HR-IXPWINDi_r2_v1.2.,2013-03-24 14:05:00,
2013-03-24 10:10:00,42.8,41.1,29.69,SSE,162,2.0,5.0,94,0.00,,,0.57,69,HR-IXPWINDi_r2_v1.2.,2013-03-24 14:10:00,
2013-03-24 10:15:00,42.9,41.5,29.68,SSE,165,2.0,5.0,95,0.00,,,0.57,70,HR-IXPWINDi_r2_v1.2.,2013-03-24 14:15:00,
2013-03-24 10:21:00,42.8,41.4,29.68,SSE,165,0.0,5.0,95,0.00,,,0.57,67,HR-IXPWINDi_r2_v1.2.,2013-03-24 14:21:00,
2013-03-24 10:26:00,42.8,41.1,29.67,SSE,165,0.0,4.0,94,0.00,,,0.57,77,HR-IXPWINDi_r2_v1.2.,2013-03-24 14:26:00,
2013-03-24 10:31:00,43.2,41.8,29.67,SSE,164,0.0,2.0,95,0.00,,,0.57,86,HR-IXPWINDi_r2_v1.2.,2013-03-24 14:31:00,
2013-03-24 10:36:00,42.9,41.2,29.67,SSE,161,4.0,4.0,94,0.00,,,0.58,90,HR-IXPWINDi_r2_v1.2.,2013-03-24 14:36:00,
2013-03-24 10:41:00,43.2,41.8,29.66,SSE,156,4.0,4.0,95,0.00,,,0.58,114,HR-IXPWINDi_r2_v1.2.,2013-03-24 14:41:00,
2013-03-24 10:46:00,43.1,41.4,29.65,NNW,344,2.0,4.0,94,0.00,,,0.58,127,HR-IXPWINDi_r2_v1.2.,2013-03-24 14:46:00,
2013-03-24 10:51:00,43.1,41.4,29.65,NE,42,0.0,4.0,94,0.00,,,0.58,118,HR-IXPWINDi_r2_v1.2.,2013-03-24 14:51:00,
2013-03-24 10:56:00,43.4,41.7,29.65,North,5,2.0,4.0,94,0.00,,,0.58,98,HR-IXPWINDi_r2_v1.2.,2013-03-24 14:56:00,
2013-03-24 11:01:00,43.4,41.5,29.65,NNW,342,4.0,5.0,93,0.00,,,0.58,121,HR-IXPWINDi_r2_v1.2.,2013-03-24 15:01:00,
2013-03-24 11:06:00,43.7,41.8,29.64,North,5,3.0,6.0,93,0.00,,,0.59,185,HR-IXPWINDi_r2_v1.2.,2013-03-24 15:06:00,
2013-03-24 11:11:00,43.6,41.7,29.64,NNW,333,5.0,7.0,93,0.12,,,0.60,130,HR-IXPWINDi_r2_v1.2.,2013-03-24 15:11:00,
2013-03-24 11:17:00,43.8,41.9,29.64,North,9,2.0,7.0,93,0.11,,,0.61,123,HR-IXPWINDi_r2_v1.2.,2013-03-24 15:17:00,
2013-03-24 11:22:00,43.5,41.3,29.65,North,350,3.0,6.0,92,0.09,,,0.61,163,HR-IXPWINDi_r2_v1.2.,2013-03-24 15:22:00,
2013-03-24 11:27:00,43.7,41.8,29.65,NNW,341,3.0,6.0,93,0.06,,,0.62,130,HR-IXPWINDi_r2_v1.2.,2013-03-24 15:27:00,
2013-03-24 11:32:00,43.6,41.4,29.66,NNW,341,0.0,5.0,92,0.17,,,0.63,91,HR-IXPWINDi_r2_v1.2.,2013-03-24 15:32:00,
2013-03-24 11:37:00,44.0,42.1,29.66,NNW,340,0.0,3.0,93,0.14,,,0.64,134,HR-IXPWINDi_r2_v1.2.,2013-03-24 15:37:00,
2013-03-24 11:42:00,44.0,42.1,29.65,NNW,345,0.0,3.0,93,0.08,,,0.65,130,HR-IXPWINDi_r2_v1.2.,2013-03-24 15:42:00,
2013-03-24 11:47:00,43.9,42.0,29.65,West,272,2.0,3.0,93,0.08,,,0.65,132,HR-IXPWINDi_r2_v1.2.,2013-03-24 15:47:00,
2013-03-24 11:52:00,43.6,41.7,29.65,SW,231,2.0,3.0,93,0.06,,,0.65,151,HR-IXPWINDi_r2_v1.2.,2013-03-24 15:52:00,
2013-03-24 11:57:00,43.7,42.0,29.64,SW,215,1.0,3.0,94,0.05,,,0.66,167,HR-IXPWINDi_r2_v1.2.,2013-03-24 15:57:00,
2013-03-24 12:02:00,44.0,42.3,29.64,SW,215,0.0,3.0,94,0.05,,,0.66,137,HR-IXPWINDi_r2_v1.2.,2013-03-24 16:02:00,
2013-03-24 12:07:00,44.2,42.5,29.64,SW,215,0.0,2.0,94,0.04,,,0.66,179,HR-IXPWINDi_r2_v1.2.,2013-03-24 16:07:00,
2013-03-24 12:13:00,43.7,41.8,29.64,SW,215,0.0,1.0,93,0.04,,,0.67,141,HR-IXPWINDi_r2_v1.2.,2013-03-24 16:13:00,
2013-03-24 12:18:00,43.8,41.6,29.63,SW,215,0.0,1.0,92,0.04,,,0.67,181,HR-IXPWINDi_r2_v1.2.,2013-03-24 16:18:00,
2013-03-24 12:23:00,44.2,42.2,29.63,SW,215,0.0,1.0,93,0.04,,,0.67,197,HR-IXPWINDi_r2_v1.2.,2013-03-24 16:23:00,
2013-03-24 12:28:00,44.7,42.7,29.63,South,182,0.0,2.0,93,0.00,,,0.67,195,HR-IXPWINDi_r2_v1.2.,2013-03-24 16:28:00,
2013-03-24 12:33:00,44.7,42.5,29.63,South,182,0.0,2.0,92,0.00,,,0.67,199,HR-IXPWINDi_r2_v1.2.,2013-03-24 16:33:00,
2013-03-24 12:38:00,45.1,42.9,29.63,South,173,0.0,4.0,92,0.00,,,0.67,114,HR-IXPWINDi_r2_v1.2.,2013-03-24 16:38:00,
2013-03-24 12:43:00,44.7,42.7,29.64,South,190,4.0,5.0,93,0.00,,,0.67,65,HR-IXPWINDi_r2_v1.2.,2013-03-24 16:43:00,
2013-03-24 12:49:00,44.4,42.4,29.64,SSW,197,0.0,5.0,93,0.00,,,0.67,100,HR-IXPWINDi_r2_v1.2.,2013-03-24 16:49:00,
2013-03-24 12:54:00,44.3,42.3,29.63,SSW,200,0.0,4.0,93,0.00,,,0.67,84,HR-IXPWINDi_r2_v1.2.,2013-03-24 16:54:00,
2013-03-24 12:59:00,44.5,42.8,29.64,West,279,0.0,3.0,94,0.00,,,0.67,88,HR-IXPWINDi_r2_v1.2.,2013-03-24 16:59:00,
2013-03-24 13:04:00,44.5,42.8,29.63,West,276,1.0,3.0,94,0.00,,,0.67,88,HR-IXPWINDi_r2_v1.2.,2013-03-24 17:04:00,
2013-03-24 13:09:00,44.0,42.3,29.63,North,351,1.0,4.0,94,0.00,,,0.67,128,HR-IXPWINDi_r2_v1.2.,2013-03-24 17:09:00,
2013-03-24 13:14:00,44.0,42.3,29.63,NNW,344,2.0,4.0,94,0.00,,,0.68,116,HR-IXPWINDi_r2_v1.2.,2013-03-24 17:14:00,
2013-03-24 13:19:00,43.6,41.9,29.63,NNW,344,0.0,3.0,94,0.00,,,0.68,84,HR-IXPWINDi_r2_v1.2.,2013-03-24 17:19:00,
2013-03-24 13:25:00,43.7,42.0,29.63,NNW,344,0.0,4.0,94,0.00,,,0.68,113,HR-IXPWINDi_r2_v1.2.,2013-03-24 17:25:00,
2013-03-24 13:30:00,43.4,41.7,29.63,NNW,344,1.0,4.0,94,0.00,,,0.68,105,HR-IXPWINDi_r2_v1.2.,2013-03-24 17:30:00,
2013-03-24 13:35:00,43.2,41.5,29.63,NNW,344,2.0,4.0,94,0.00,,,0.68,132,HR-IXPWINDi_r2_v1.2.,2013-03-24 17:35:00,
2013-03-24 13:40:00,43.2,41.5,29.63,NNW,348,3.0,4.0,94,0.00,,,0.68,179,HR-IXPWINDi_r2_v1.2.,2013-03-24 17:40:00,
2013-03-24 13:45:00,43.4,41.7,29.63,NNW,344,2.0,4.0,94,0.00,,,0.68,148,HR-IXPWINDi_r2_v1.2.,2013-03-24 17:45:00,
2013-03-24 13:50:00,43.4,41.7,29.62,North,360,0.0,6.0,94,0.00,,,0.68,172,HR-IXPWINDi_r2_v1.2.,2013-03-24 17:50:00,
2013-03-24 13:56:00,43.5,42.1,29.62,North,360,0.0,6.0,95,0.00,,,0.68,183,HR-IXPWINDi_r2_v1.2.,2013-03-24 17:56:00,
2013-03-24 14:01:00,43.4,41.7,29.62,North,355,0.0,2.0,94,0.00,,,0.68,100,HR-IXPWINDi_r2_v1.2.,2013-03-24 18:01:00,
2013-03-24 14:06:00,43.5,41.8,29.62,North,355,1.0,2.0,94,0.00,,,0.68,114,HR-IXPWINDi_r2_v1.2.,2013-03-24 18:06:00,
2013-03-24 14:11:00,43.3,41.6,29.61,North,355,0.0,2.0,94,0.00,,,0.68,144,HR-IXPWINDi_r2_v1.2.,2013-03-24 18:11:00,
2013-03-24 14:16:00,44.0,42.3,29.60,North,355,0.0,2.0,94,0.00,,,0.68,171,HR-IXPWINDi_r2_v1.2.,2013-03-24 18:16:00,
2013-03-24 14:21:00,43.1,41.2,29.59,North,355,0.0,1.0,93,0.00,,,0.68,255,HR-IXPWINDi_r2_v1.2.,2013-03-24 18:21:00,
2013-03-24 14:26:00,43.3,41.4,29.60,SW,217,2.0,4.0,93,0.00,,,0.68,179,HR-IXPWINDi_r2_v1.2.,2013-03-24 18:26:00,
2013-03-24 14:31:00,43.7,42.0,29.59,SW,217,0.0,4.0,94,0.00,,,0.68,204,HR-IXPWINDi_r2_v1.2.,2013-03-24 18:31:00,
2013-03-24 14:37:00,43.9,42.0,29.58,SW,217,0.0,3.0,93,0.00,,,0.68,221,HR-IXPWINDi_r2_v1.2.,2013-03-24 18:37:00,
2013-03-24 14:42:00,44.1,42.4,29.57,SW,217,0.0,1.0,94,0.00,,,0.68,255,HR-IXPWINDi_r2_v1.2.,2013-03-24 18:42:00,
2013-03-24 14:47:00,44.8,43.1,29.57,SW,217,0.0,1.0,94,0.00,,,0.68,181,HR-IXPWINDi_r2_v1.2.,2013-03-24 18:47:00,
2013-03-24 14:52:00,45.2,43.5,29.58,SW,217,0.0,3.0,94,0.00,,,0.68,148,HR-IXPWINDi_r2_v1.2.,2013-03-24 18:52:00,
2013-03-24 14:57:00,44.9,42.9,29.57,SW,217,3.0,3.0,93,0.00,,,0.68,134,HR-IXPWINDi_r2_v1.2.,2013-03-24 18:57:00,
2013-03-24 15:02:00,44.3,42.3,29.57,SSW,205,4.0,7.0,93,0.00,,,0.68,116,HR-IXPWINDi_r2_v1.2.,2013-03-24 19:02:00,
2013-03-24 15:08:00,44.2,42.0,29.57,SSW,194,3.0,8.0,92,0.00,,,0.68,142,HR-IXPWINDi_r2_v1.2.,2013-03-24 19:08:00,
2013-03-24 15:13:00,44.6,42.4,29.56,SSW,200,3.0,8.0,92,0.00,,,0.68,214,HR-IXPWINDi_r2_v1.2.,2013-03-24 19:13:00,
2013-03-24 15:18:00,44.8,42.0,29.55,SSE,148,2.0,9.0,90,0.00,,,0.68,260,HR-IXPWINDi_r2_v1.2.,2013-03-24 19:18:00,
2013-03-24 15:23:00,44.9,42.1,29.54,SE,145,2.0,9.0,90,0.00,,,0.68,350,HR-IXPWINDi_r2_v1.2.,2013-03-24 19:23:00,
2013-03-24 15:28:00,45.8,43.0,29.54,SE,134,7.0,7.0,90,0.00,,,0.68,494,HR-IXPWINDi_r2_v1.2.,2013-03-24 19:28:00,
2013-03-24 15:33:00,46.0,42.6,29.54,SE,146,7.0,14.0,88,0.00,,,0.68,374,HR-IXPWINDi_r2_v1.2.,2013-03-24 19:33:00,
2013-03-24 15:38:00,45.9,41.9,29.53,SE,130,1.0,14.0,86,0.00,,,0.68,921,HR-IXPWINDi_r2_v1.2.,2013-03-24 19:38:00,
2013-03-24 15:44:00,46.9,42.9,29.53,SSE,160,8.0,13.0,86,0.00,,,0.68,784,HR-IXPWINDi_r2_v1.2.,2013-03-24 19:44:00,
2013-03-24 15:49:00,46.8,42.8,29.53,ESE,121,12.0,12.0,86,0.00,,,0.68,446,HR-IXPWINDi_r2_v1.2.,2013-03-24 19:49:00,
2013-03-24 15:54:00,47.1,43.4,29.52,ESE,102,7.0,13.0,87,0.00,,,0.68,663,HR-IXPWINDi_r2_v1.2.,2013-03-24 19:54:00,
2013-03-24 15:59:00,47.9,43.2,29.51,NNW,327,3.0,13.0,84,0.00,,,0.68,842,HR-IXPWINDi_r2_v1.2.,2013-03-24 19:59:00,
2013-03-24 16:04:00,49.1,44.1,29.51,SE,140,10.0,13.0,83,0.00,,,0.68,821,HR-IXPWINDi_r2_v1.2.,2013-03-24 20:04:00,
2013-03-24 16:09:00,49.5,44.5,29.51,ENE,66,2.0,13.0,83,0.00,,,0.68,821,HR-IXPWINDi_r2_v1.2.,2013-03-24 20:09:00,
2013-03-24 16:15:00,51.6,45.2,29.50,ESE,105,5.0,12.0,79,0.00,,,0.68,816,HR-IXPWINDi_r2_v1.2.,2013-03-24 20:15:00,
2013-03-24 16:20:00,50.9,44.6,29.51,ESE,119,0.0,6.0,79,0.00,,,0.68,462,HR-IXPWINDi_r2_v1.2.,2013-03-24 20:20:00,
2013-03-24 16:25:00,49.6,43.0,29.50,SE,125,6.0,10.0,78,0.00,,,0.68,385,HR-IXPWINDi_r2_v1.2.,2013-03-24 20:25:00,
2013-03-24 16:30:00,49.7,43.7,29.50,East,98,0.0,10.0,80,0.00,,,0.68,543,HR-IXPWINDi_r2_v1.2.,2013-03-24 20:30:00,
2013-03-24 16:35:00,49.2,42.6,29.50,ESE,103,2.0,8.0,78,0.00,,,0.68,306,HR-IXPWINDi_r2_v1.2.,2013-03-24 20:35:00,
2013-03-24 16:41:00,49.6,43.6,29.49,ESE,103,4.0,9.0,80,0.00,,,0.68,274,HR-IXPWINDi_r2_v1.2.,2013-03-24 20:41:00,
2013-03-24 16:46:00,48.8,42.9,29.49,East,100,6.0,9.0,80,0.00,,,0.68,255,HR-IXPWINDi_r2_v1.2.,2013-03-24 20:46:00,
2013-03-24 16:51:00,48.4,43.1,29.49,ENE,76,1.0,8.0,82,0.00,,,0.68,230,HR-IXPWINDi_r2_v1.2.,2013-03-24 20:51:00,
2013-03-24 16:56:00,48.7,42.8,29.49,NE,51,4.0,8.0,80,0.00,,,0.68,230,HR-IXPWINDi_r2_v1.2.,2013-03-24 20:56:00,
2013-03-24 17:01:00,48.8,42.9,29.50,East,99,4.0,7.0,80,0.00,,,0.68,227,HR-IXPWINDi_r2_v1.2.,2013-03-24 21:01:00,
2013-03-24 17:06:00,48.2,42.3,29.49,ESE,114,6.0,9.0,80,0.00,,,0.68,322,HR-IXPWINDi_r2_v1.2.,2013-03-24 21:06:00,
2013-03-24 17:12:00,48.3,42.4,29.49,SE,126,7.0,9.0,80,0.00,,,0.68,520,HR-IXPWINDi_r2_v1.2.,2013-03-24 21:12:00,
2013-03-24 17:17:00,48.1,41.5,29.49,SE,145,9.0,13.0,78,0.00,,,0.68,503,HR-IXPWINDi_r2_v1.2.,2013-03-24 21:17:00,
2013-03-24 17:22:00,47.3,41.1,29.49,SSE,148,6.0,14.0,79,0.00,,,0.68,174,HR-IXPWINDi_r2_v1.2.,2013-03-24 21:22:00,
2013-03-24 17:27:00,46.6,40.4,29.50,South,173,9.0,15.0,79,0.00,,,0.68,139,HR-IXPWINDi_r2_v1.2.,2013-03-24 21:27:00,
2013-03-24 17:32:00,46.4,40.5,29.50,SSW,210,7.0,18.0,80,0.00,,,0.68,111,HR-IXPWINDi_r2_v1.2.,2013-03-24 21:32:00,
2013-03-24 17:37:00,45.9,40.0,29.50,SE,130,9.0,19.0,80,0.00,,,0.68,105,HR-IXPWINDi_r2_v1.2.,2013-03-24 21:37:00,
2013-03-24 17:42:00,45.7,39.8,29.50,SSW,205,5.0,19.0,80,0.00,,,0.68,81,HR-IXPWINDi_r2_v1.2.,2013-03-24 21:42:00,
2013-03-24 17:47:00,45.8,40.3,29.50,SSW,196,5.0,14.0,81,0.00,,,0.68,79,HR-IXPWINDi_r2_v1.2.,2013-03-24 21:47:00,
2013-03-24 17:52:00,45.5,40.0,29.50,SSW,200,8.0,13.0,81,0.00,,,0.68,79,HR-IXPWINDi_r2_v1.2.,2013-03-24 21:52:00,
2013-03-24 17:57:00,45.4,40.2,29.49,SSE,153,8.0,15.0,82,0.00,,,0.68,79,HR-IXPWINDi_r2_v1.2.,2013-03-24 21:57:00,
2013-03-24 18:03:00,45.6,40.4,29.49,South,172,8.0,17.0,82,0.00,,,0.68,72,HR-IXPWINDi_r2_v1.2.,2013-03-24 22:03:00,
2013-03-24 18:08:00,45.2,40.0,29.49,SE,132,12.0,17.0,82,0.00,,,0.68,67,HR-IXPWINDi_r2_v1.2.,2013-03-24 22:08:00,
2013-03-24 18:13:00,45.1,39.9,29.50,South,185,6.0,18.0,82,0.00,,,0.68,65,HR-IXPWINDi_r2_v1.2.,2013-03-24 22:13:00,
2013-03-24 18:18:00,45.0,39.8,29.50,SE,138,13.0,18.0,82,0.00,,,0.68,65,HR-IXPWINDi_r2_v1.2.,2013-03-24 22:18:00,
2013-03-24 18:23:00,45.0,39.8,29.50,ESE,113,2.0,15.0,82,0.00,,,0.68,70,HR-IXPWINDi_r2_v1.2.,2013-03-24 22:23:00,
2013-03-24 18:29:00,45.1,39.9,29.50,ESE,112,4.0,15.0,82,0.00,,,0.68,72,HR-IXPWINDi_r2_v1.2.,2013-03-24 22:29:00,
2013-03-24 18:34:00,44.9,39.7,29.50,ESE,109,2.0,20.0,82,0.00,,,0.68,58,HR-IXPWINDi_r2_v1.2.,2013-03-24 22:34:00,
2013-03-24 18:39:00,45.0,39.8,29.49,ESE,111,8.0,20.0,82,0.00,,,0.68,53,HR-IXPWINDi_r2_v1.2.,2013-03-24 22:39:00,
2013-03-24 18:44:00,44.8,39.6,29.50,NNW,334,3.0,15.0,82,0.00,,,0.68,42,HR-IXPWINDi_r2_v1.2.,2013-03-24 22:44:00,
2013-03-24 18:49:00,44.7,39.5,29.50,North,349,1.0,15.0,82,0.00,,,0.68,32,HR-IXPWINDi_r2_v1.2.,2013-03-24 22:49:00,
2013-03-24 18:54:00,44.8,39.6,29.51,WNW,286,2.0,8.0,82,0.00,,,0.68,39,HR-IXPWINDi_r2_v1.2.,2013-03-24 22:54:00,
2013-03-24 18:59:00,44.3,39.1,29.52,South,174,0.0,9.0,82,0.00,,,0.68,19,HR-IXPWINDi_r2_v1.2.,2013-03-24 22:59:00,
2013-03-24 19:04:00,44.0,39.1,29.51,ENE,62,1.0,11.0,83,0.00,,,0.68,16,HR-IXPWINDi_r2_v1.2.,2013-03-24 23:04:00,
2013-03-24 19:09:00,43.9,39.0,29.51,NNW,344,9.0,11.0,83,0.00,,,0.68,18,HR-IXPWINDi_r2_v1.2.,2013-03-24 23:09:00,
2013-03-24 19:14:00,44.0,39.1,29.51,NNW,340,7.0,9.0,83,0.00,,,0.68,19,HR-IXPWINDi_r2_v1.2.,2013-03-24 23:14:00,
2013-03-24 19:20:00,44.0,39.4,29.50,North,360,7.0,10.0,84,0.00,,,0.68,12,HR-IXPWINDi_r2_v1.2.,2013-03-24 23:20:00,
2013-03-24 19:25:00,43.7,39.1,29.51,North,360,7.0,10.0,84,0.00,,,0.68,9,HR-IXPWINDi_r2_v1.2.,2013-03-24 23:25:00,
2013-03-24 19:30:00,43.5,38.9,29.51,North,5,5.0,13.0,84,0.00,,,0.68,5,HR-IXPWINDi_r2_v1.2.,2013-03-24 23:30:00,
2013-03-24 19:35:00,43.5,38.9,29.50,NNE,26,5.0,13.0,84,0.00,,,0.68,0,HR-IXPWINDi_r2_v1.2.,2013-03-24 23:35:00,
2013-03-24 19:40:00,43.4,38.8,29.50,NNW,344,7.0,14.0,84,0.00,,,0.68,0,HR-IXPWINDi_r2_v1.2.,2013-03-24 23:40:00,
2013-03-24 19:45:00,43.5,38.9,29.50,North,5,5.0,14.0,84,0.00,,,0.68,0,HR-IXPWINDi_r2_v1.2.,2013-03-24 23:45:00,
2013-03-24 19:50:00,43.6,39.0,29.51,NNW,344,7.0,10.0,84,0.00,,,0.68,0,HR-IXPWINDi_r2_v1.2.,2013-03-24 23:50:00,
2013-03-24 19:56:00,43.6,39.0,29.52,NE,35,7.0,12.0,84,0.00,,,0.68,0,HR-IXPWINDi_r2_v1.2.,2013-03-24 23:56:00,
2013-03-24 20:01:00,43.6,39.0,29.52,ESE,113,6.0,12.0,84,0.00,,,0.68,0,HR-IXPWINDi_r2_v1.2.,2013-03-25 00:01:00,
2013-03-24 20:06:00,43.7,39.1,29.51,NNW,344,4.0,12.0,84,0.00,,,0.68,0,HR-IXPWINDi_r2_v1.2.,2013-03-25 00:06:00,
2013-03-24 20:11:00,43.7,39.1,29.52,North,355,9.0,11.0,84,0.00,,,0.68,0,HR-IXPWINDi_r2_v1.2.,2013-03-25 00:11:00,
2013-03-24 20:16:00,43.5,38.9,29.50,East,80,7.0,15.0,84,0.00,,,0.68,0,HR-IXPWINDi_r2_v1.2.,2013-03-25 00:16:00,
2013-03-24 20:22:00,43.3,39.0,29.51,SE,144,1.0,15.0,85,0.00,,,0.68,0,HR-IXPWINDi_r2_v1.2.,2013-03-25 00:22:00,
2013-03-24 20:27:00,43.2,38.9,29.51,North,5,4.0,12.0,85,0.00,,,0.68,0,HR-IXPWINDi_r2_v1.2.,2013-03-25 00:27:00,
2013-03-24 20:32:00,43.2,39.2,29.51,NW,317,8.0,8.0,86,0.00,,,0.68,0,HR-IXPWINDi_r2_v1.2.,2013-03-25 00:32:00,
2013-03-24 20:37:00,43.1,39.2,29.51,NNW,341,6.0,11.0,86,0.00,,,0.68,0,HR-IXPWINDi_r2_v1.2.,2013-03-25 00:37:00,
2013-03-24 20:43:00,43.1,39.2,29.49,NE,52,0.0,11.0,86,0.00,,,0.68,0,HR-IXPWINDi_r2_v1.2.,2013-03-25 00:43:00,
2013-03-24 20:48:00,43.0,39.1,29.50,North,5,6.0,9.0,86,0.00,,,0.68,0,HR-IXPWINDi_r2_v1.2.,2013-03-25 00:48:00,
2013-03-24 20:53:00,42.8,38.9,29.50,NNW,329,2.0,11.0,86,0.00,,,0.68,0,HR-IXPWINDi_r2_v1.2.,2013-03-25 00:53:00,
2013-03-24 20:58:00,42.9,39.3,29.50,North,5,4.0,11.0,87,0.00,,,0.68,0,HR-IXPWINDi_r2_v1.2.,2013-03-25 00:58:00,
2013-03-24 21:03:00,43.0,39.3,29.51,NNE,28,0.0,11.0,87,0.00,,,0.68,0,HR-IXPWINDi_r2_v1.2.,2013-03-25 01:03:00,
2013-03-24 21:09:00,43.1,39.2,29.52,SSE,160,5.0,14.0,86,0.00,,,0.68,0,HR-IXPWINDi_r2_v1.2.,2013-03-25 01:09:00,
2013-03-24 21:14:00,43.3,39.0,29.52,ESE,115,2.0,14.0,85,0.00,,,0.68,0,HR-IXPWINDi_r2_v1.2.,2013-03-25 01:14:00,
2013-03-24 21:19:00,43.3,39.0,29.52,SE,126,1.0,11.0,85,0.00,,,0.68,0,HR-IXPWINDi_r2_v1.2.,2013-03-25 01:19:00,
2013-03-24 21:24:00,43.4,39.1,29.52,ESE,121,0.0,17.0,85,0.00,,,0.68,0,HR-IXPWINDi_r2_v1.2.,2013-03-25 01:24:00,
2013-03-24 21:30:00,43.3,39.0,29.52,ESE,123,2.0,17.0,85,0.00,,,0.68,0,HR-IXPWINDi_r2_v1.2.,2013-03-25 01:30:00,
2013-03-24 21:35:00,43.1,39.2,29.53,NE,38,6.0,7.0,86,0.00,,,0.69,0,HR-IXPWINDi_r2_v1.2.,2013-03-25 01:35:00,
2013-03-24 21:40:00,42.7,38.8,29.53,North,5,8.0,10.0,86,0.00,,,0.69,0,HR-IXPWINDi_r2_v1.2.,2013-03-25 01:40:00,
2013-03-24 21:45:00,42.3,38.4,29.53,ESE,121,6.0,10.0,86,0.00,,,0.69,0,HR-IXPWINDi_r2_v1.2.,2013-03-25 01:45:00,
2013-03-24 21:50:00,42.1,38.2,29.53,ESE,108,1.0,11.0,86,0.00,,,0.69,0,HR-IXPWINDi_r2_v1.2.,2013-03-25 01:50:00,
2013-03-24 21:55:00,42.0,38.1,29.54,NE,39,2.0,11.0,86,0.00,,,0.69,0,HR-IXPWINDi_r2_v1.2.,2013-03-25 01:55:00,
2013-03-24 22:00:00,42.0,38.4,29.53,NNW,344,3.0,11.0,87,0.00,,,0.69,0,HR-IXPWINDi_r2_v1.2.,2013-03-25 02:00:00,
2013-03-24 22:06:00,41.9,38.3,29.54,North,9,6.0,8.0,87,0.00,,,0.69,0,HR-IXPWINDi_r2_v1.2.,2013-03-25 02:06:00,
2013-03-24 22:11:00,41.7,38.4,29.55,North,360,2.0,9.0,88,0.00,,,0.70,0,HR-IXPWINDi_r2_v1.2.,2013-03-25 02:11:00,
2013-03-24 22:16:00,41.4,38.4,29.56,NNW,330,2.0,9.0,89,0.00,,,0.70,0,HR-IXPWINDi_r2_v1.2.,2013-03-25 02:16:00,
2013-03-24 22:21:00,41.4,38.6,29.56,NNW,334,2.0,8.0,90,0.17,,,0.72,0,HR-IXPWINDi_r2_v1.2.,2013-03-25 02:21:00,
2013-03-24 22:26:00,41.2,38.4,29.56,NNW,335,0.0,8.0,90,0.10,,,0.72,0,HR-IXPWINDi_r2_v1.2.,2013-03-25 02:26:00,
2013-03-24 22:32:00,41.2,38.7,29.56,NNW,335,2.0,6.0,91,0.05,,,0.72,0,HR-IXPWINDi_r2_v1.2.,2013-03-25 02:32:00,
2013-03-24 22:37:00,40.8,38.3,29.55,NNW,335,2.0,2.0,91,0.04,,,0.72,0,HR-IXPWINDi_r2_v1.2.,2013-03-25 02:37:00,
2013-03-24 22:42:00,40.8,38.6,29.55,SE,138,1.0,5.0,92,0.18,,,0.74,0,HR-IXPWINDi_r2_v1.2.,2013-03-25 02:42:00,
2013-03-24 22:47:00,40.6,38.4,29.55,SE,138,0.0,5.0,92,0.10,,,0.74,0,HR-IXPWINDi_r2_v1.2.,2013-03-25 02:47:00,
2013-03-24 22:52:00,40.8,38.6,29.55,SE,138,0.0,1.0,92,0.10,,,0.75,0,HR-IXPWINDi_r2_v1.2.,2013-03-25 02:52:00,
2013-03-24 22:58:00,40.6,38.7,29.55,SE,138,0.0,0.0,93,0.10,,,0.76,0,HR-IXPWINDi_r2_v1.2.,2013-03-25 02:58:00,
2013-03-24 23:03:00,40.5,38.6,29.55,SE,138,0.0,1.0,93,0.10,,,0.77,0,HR-IXPWINDi_r2_v1.2.,2013-03-25 03:03:00,
2013-03-24 23:08:00,40.5,38.6,29.55,SE,138,0.0,1.0,93,0.13,,,0.78,0,HR-IXPWINDi_r2_v1.2.,2013-03-25 03:08:00,
2013-03-24 23:13:00,40.3,38.4,29.56,SE,138,0.0,2.0,93,0.19,,,0.80,0,HR-IXPWINDi_r2_v1.2.,2013-03-25 03:13:00,
2013-03-24 23:18:00,40.1,38.5,29.56,SE,142,0.0,4.0,94,0.15,,,0.81,0,HR-IXPWINDi_r2_v1.2.,2013-03-25 03:18:00,
2013-03-24 23:24:00,40.2,38.6,29.57,SE,142,1.0,4.0,94,0.07,,,0.81,0,HR-IXPWINDi_r2_v1.2.,2013-03-25 03:24:00,
2013-03-24 23:29:00,39.7,38.1,29.54,East,80,3.0,5.0,94,0.06,,,0.82,0,HR-IXPWINDi_r2_v1.2.,2013-03-25 03:29:00,
2013-03-24 23:34:00,39.5,37.9,29.54,NE,54,4.0,5.0,94,0.06,,,0.82,0,HR-IXPWINDi_r2_v1.2.,2013-03-25 03:34:00,
2013-03-24 23:39:00,39.6,38.0,29.54,ESE,102,5.0,6.0,94,0.04,,,0.82,0,HR-IXPWINDi_r2_v1.2.,2013-03-25 03:39:00,
2013-03-24 23:44:00,39.4,37.8,29.54,East,82,2.0,6.0,94,0.00,,,0.82,0,HR-IXPWINDi_r2_v1.2.,2013-03-25 03:44:00,
2013-03-24 23:49:00,39.2,37.3,29.54,ENE,78,1.0,6.0,93,0.00,,,0.82,0,HR-IXPWINDi_r2_v1.2.,2013-03-25 03:49:00,
2013-03-24 23:54:00,38.7,36.8,29.53,East,79,0.0,5.0,93,0.00,,,0.82,0,HR-IXPWINDi_r2_v1.2.,2013-03-25 03:54:00,
2013-03-24 23:59:00,38.8,37.2,29.53,ENE,74,0.0,3.0,94,0.00,,,0.00,0,HR-IXPWINDi_r2_v1.2.,2013-03-25 03:59:00,